sensor_id;sensor_type;location;lat;lon;timestamp;pressure;altitude;pressure_sealevel;temperature;humidity
62791;BME280;48830;53.426;10.300;2023-04-08T00:02:20;102328.00;;;7.07;100.00
62791;BME280;48830;53.426;10.300;2023-04-08T00:04:45;102323.63;;;7.05;100.00
62791;BME280;48830;53.426;10.300;2023-04-08T00:07:11;102317.28;;;7.15;100.00
62791;BME280;48830;53.426;10.300;2023-04-08T00:09:36;102315.59;;;7.15;100.00
62791;BME280;48830;53.426;10.300;2023-04-08T00:12:03;102317.03;;;7.10;100.00
62791;BME280;48830;53.426;10.300;2023-04-08T00:14:28;102316.16;;;7.09;100.00
62791;BME280;48830;53.426;10.300;2023-04-08T00:16:54;102316.00;;;7.06;100.00
62791;BME280;48830;53.426;10.300;2023-04-08T00:19:19;102314.72;;;7.15;100.00
62791;BME280;48830;53.426;10.300;2023-04-08T00:21:45;102318.09;;;7.14;100.00
62791;BME280;48830;53.426;10.300;2023-04-08T00:24:10;102315.84;;;7.03;100.00
62791;BME280;48830;53.426;10.300;2023-04-08T00:26:36;102320.81;;;7.00;100.00
62791;BME280;48830;53.426;10.300;2023-04-08T00:29:02;102315.69;;;7.00;100.00
62791;BME280;48830;53.426;10.300;2023-04-08T00:31:27;102322.63;;;7.03;100.00
62791;BME280;48830;53.426;10.300;2023-04-08T00:33:52;102327.13;;;7.07;100.00
62791;BME280;48830;53.426;10.300;2023-04-08T00:36:18;102323.63;;;7.05;100.00
62791;BME280;48830;53.426;10.300;2023-04-08T00:38:44;102317.94;;;7.10;100.00
62791;BME280;48830;53.426;10.300;2023-04-08T00:41:09;102329.81;;;7.10;100.00
62791;BME280;48830;53.426;10.300;2023-04-08T00:43:34;102323.84;;;7.09;100.00
62791;BME280;48830;53.426;10.300;2023-04-08T00:46:00;102319.69;;;7.12;100.00
62791;BME280;48830;53.426;10.300;2023-04-08T00:48:26;102323.22;;;7.14;100.00
62791;BME280;48830;53.426;10.300;2023-04-08T00:50:51;102323.94;;;7.11;100.00
62791;BME280;48830;53.426;10.300;2023-04-08T00:53:18;102324.97;;;7.15;100.00
62791;BME280;48830;53.426;10.300;2023-04-08T00:55:44;102330.06;;;7.15;100.00
62791;BME280;48830;53.426;10.300;2023-04-08T00:58:10;102319.78;;;7.13;100.00
62791;BME280;48830;53.426;10.300;2023-04-08T01:00:38;102320.03;;;7.18;100.00
62791;BME280;48830;53.426;10.300;2023-04-08T01:03:13;102317.94;;;7.10;100.00
62791;BME280;48830;53.426;10.300;2023-04-08T01:08:12;102322.34;;;7.13;100.00
62791;BME280;48830;53.426;10.300;2023-04-08T01:10:39;102320.94;;;7.03;100.00
62791;BME280;48830;53.426;10.300;2023-04-08T01:13:08;102323.69;;;7.06;100.00
62791;BME280;48830;53.426;10.300;2023-04-08T01:15:37;102319.69;;;7.12;100.00
62791;BME280;48830;53.426;10.300;2023-04-08T01:18:07;102314.59;;;7.12;100.00
62791;BME280;48830;53.426;10.300;2023-04-08T01:20:34;102317.78;;;7.07;100.00
62791;BME280;48830;53.426;10.300;2023-04-08T01:25:30;102322.16;;;7.10;100.00
62791;BME280;48830;53.426;10.300;2023-04-08T01:27:57;102318.81;;;7.11;100.00
62791;BME280;48830;53.426;10.300;2023-04-08T01:30:27;102312.66;;;7.07;100.00
62791;BME280;48830;53.426;10.300;2023-04-08T01:32:56;102308.50;;;7.09;100.00
62791;BME280;48830;53.426;10.300;2023-04-08T01:35:23;102308.59;;;7.11;100.00
62791;BME280;48830;53.426;10.300;2023-04-08T01:37:51;102312.97;;;7.14;100.00
62791;BME280;48830;53.426;10.300;2023-04-08T01:40:18;102311.47;;;7.17;100.00
62791;BME280;48830;53.426;10.300;2023-04-08T01:42:46;102302.25;;;7.04;100.00
62791;BME280;48830;53.426;10.300;2023-04-08T01:45:13;102305.78;;;7.06;100.00
62791;BME280;48830;53.426;10.300;2023-04-08T01:47:40;102302.59;;;7.10;100.00
62791;BME280;48830;53.426;10.300;2023-04-08T01:50:07;102293.25;;;7.11;100.00
62791;BME280;48830;53.426;10.300;2023-04-08T01:52:36;102299.78;;;7.06;100.00
62791;BME280;48830;53.426;10.300;2023-04-08T01:55:03;102294.50;;;7.03;100.00
62791;BME280;48830;53.426;10.300;2023-04-08T01:57:32;102295.22;;;7.00;100.00
62791;BME280;48830;53.426;10.300;2023-04-08T02:00:05;102287.38;;;6.97;100.00
62791;BME280;48830;53.426;10.300;2023-04-08T02:02:45;102290.13;;;7.00;100.00
62791;BME280;48830;53.426;10.300;2023-04-08T02:05:12;102287.72;;;7.03;100.00
62791;BME280;48830;53.426;10.300;2023-04-08T02:07:38;102292.19;;;7.07;100.00
62791;BME280;48830;53.426;10.300;2023-04-08T02:10:04;102294.56;;;7.04;100.00
62791;BME280;48830;53.426;10.300;2023-04-08T02:12:30;102299.88;;;7.07;100.00
62791;BME280;48830;53.426;10.300;2023-04-08T02:14:57;102304.19;;;7.08;100.00
62791;BME280;48830;53.426;10.300;2023-04-08T02:17:32;102308.03;;;7.00;100.00
62791;BME280;48830;53.426;10.300;2023-04-08T02:20:09;102308.78;;;6.99;100.00
62791;BME280;48830;53.426;10.300;2023-04-08T02:22:42;102305.78;;;7.06;100.00
62791;BME280;48830;53.426;10.300;2023-04-08T02:25:15;102303.84;;;7.02;100.00
62791;BME280;48830;53.426;10.300;2023-04-08T02:27:41;102294.56;;;7.04;100.00
62791;BME280;48830;53.426;10.300;2023-04-08T02:30:10;102295.22;;;7.00;100.00
62791;BME280;48830;53.426;10.300;2023-04-08T02:32:36;102294.19;;;6.97;100.00
62791;BME280;48830;53.426;10.300;2023-04-08T02:35:04;102302.56;;;6.94;100.00
62791;BME280;48830;53.426;10.300;2023-04-08T02:37:30;102302.97;;;7.02;100.00
62791;BME280;48830;53.426;10.300;2023-04-08T02:39:58;102302.31;;;6.90;100.00
62791;BME280;48830;53.426;10.300;2023-04-08T02:42:23;102293.53;;;6.84;100.00
62791;BME280;48830;53.426;10.300;2023-04-08T02:44:51;102309.59;;;6.98;100.00
62791;BME280;48830;53.426;10.300;2023-04-08T02:47:17;102314.97;;;7.03;100.00
62791;BME280;48830;53.426;10.300;2023-04-08T02:49:42;102306.72;;;6.92;100.00
62791;BME280;48830;53.426;10.300;2023-04-08T02:52:08;102312.38;;;6.87;100.00
62791;BME280;48830;53.426;10.300;2023-04-08T02:54:33;102308.84;;;6.84;100.00
62791;BME280;48830;53.426;10.300;2023-04-08T02:56:59;102316.06;;;6.92;100.00
62791;BME280;48830;53.426;10.300;2023-04-08T02:59:24;102315.34;;;6.94;100.00
62791;BME280;48830;53.426;10.300;2023-04-08T03:01:50;102319.41;;;6.91;100.00
62791;BME280;48830;53.426;10.300;2023-04-08T03:04:15;102315.19;;;6.91;100.00
62791;BME280;48830;53.426;10.300;2023-04-08T03:06:41;102311.50;;;6.86;100.00
62791;BME280;48830;53.426;10.300;2023-04-08T03:09:06;102318.81;;;6.80;100.00
62791;BME280;48830;53.426;10.300;2023-04-08T03:11:32;102321.78;;;6.88;100.00
62791;BME280;48830;53.426;10.300;2023-04-08T03:13:59;102324.44;;;6.89;100.00
62791;BME280;48830;53.426;10.300;2023-04-08T03:16:24;102320.75;;;6.84;100.00
62791;BME280;48830;53.426;10.300;2023-04-08T03:18:50;102325.59;;;6.94;100.00
62791;BME280;48830;53.426;10.300;2023-04-08T03:21:16;102320.22;;;6.90;100.00
62791;BME280;48830;53.426;10.300;2023-04-08T03:23:41;102320.28;;;6.91;100.00
62791;BME280;48830;53.426;10.300;2023-04-08T03:26:07;102323.06;;;6.79;100.00
62791;BME280;48830;53.426;10.300;2023-04-08T03:28:32;102329.56;;;6.89;100.00
62791;BME280;48830;53.426;10.300;2023-04-08T03:30:58;102325.41;;;6.91;100.00
62791;BME280;48830;53.426;10.300;2023-04-08T03:33:25;102327.00;;;6.89;100.00
62791;BME280;48830;53.426;10.300;2023-04-08T03:35:52;102337.56;;;6.95;100.00
62791;BME280;48830;53.426;10.300;2023-04-08T03:38:18;102331.09;;;7.02;100.00
62791;BME280;48830;53.426;10.300;2023-04-08T03:40:43;102326.69;;;6.99;100.00
62791;BME280;48830;53.426;10.300;2023-04-08T03:43:08;102331.22;;;6.89;100.00
62791;BME280;48830;53.426;10.300;2023-04-08T03:45:36;102323.66;;;6.90;100.00
62791;BME280;48830;53.426;10.300;2023-04-08T03:48:01;102336.25;;;6.87;100.00
62791;BME280;48830;53.426;10.300;2023-04-08T03:50:27;102338.28;;;6.78;100.00
62791;BME280;48830;53.426;10.300;2023-04-08T03:52:52;102338.72;;;6.86;100.00
62791;BME280;48830;53.426;10.300;2023-04-08T03:55:18;102338.66;;;6.84;100.00
62791;BME280;48830;53.426;10.300;2023-04-08T03:57:43;102344.78;;;6.88;100.00
62791;BME280;48830;53.426;10.300;2023-04-08T04:00:10;102338.13;;;6.75;100.00
62791;BME280;48830;53.426;10.300;2023-04-08T04:02:38;102340.41;;;6.85;100.00
62791;BME280;48830;53.426;10.300;2023-04-08T04:05:04;102337.66;;;6.82;100.00
62791;BME280;48830;53.426;10.300;2023-04-08T04:07:30;102343.16;;;6.73;100.00
62791;BME280;48830;53.426;10.300;2023-04-08T04:09:55;102342.97;;;6.85;100.00
62791;BME280;48830;53.426;10.300;2023-04-08T04:12:24;102348.88;;;6.84;100.00
62791;BME280;48830;53.426;10.300;2023-04-08T04:14:49;102343.91;;;6.87;100.00
62791;BME280;48830;53.426;10.300;2023-04-08T04:17:15;102362.41;;;6.83;100.00
62791;BME280;48830;53.426;10.300;2023-04-08T04:19:40;102363.50;;;6.87;100.00
62791;BME280;48830;53.426;10.300;2023-04-08T04:22:06;102360.66;;;6.82;100.00
62791;BME280;48830;53.426;10.300;2023-04-08T04:24:31;102370.28;;;6.86;100.00
62791;BME280;48830;53.426;10.300;2023-04-08T04:26:57;102375.19;;;6.83;100.00
62791;BME280;48830;53.426;10.300;2023-04-08T04:29:22;102375.06;;;6.80;100.00
62791;BME280;48830;53.426;10.300;2023-04-08T04:31:48;102382.19;;;6.71;100.00
62791;BME280;48830;53.426;10.300;2023-04-08T04:34:13;102380.44;;;6.70;100.00
62791;BME280;48830;53.426;10.300;2023-04-08T04:36:39;102387.91;;;6.81;100.00
62791;BME280;48830;53.426;10.300;2023-04-08T04:39:04;102373.91;;;6.75;100.00
62791;BME280;48830;53.426;10.300;2023-04-08T04:41:29;102378.28;;;6.77;100.00
62791;BME280;48830;53.426;10.300;2023-04-08T04:43:55;102376.19;;;6.85;100.00
62791;BME280;48830;53.426;10.300;2023-04-08T04:46:21;102368.59;;;6.87;100.00
62791;BME280;48830;53.426;10.300;2023-04-08T04:48:46;102377.22;;;6.89;100.00
62791;BME280;48830;53.426;10.300;2023-04-08T04:51:11;102366.13;;;6.88;100.00
62791;BME280;48830;53.426;10.300;2023-04-08T04:53:37;102378.28;;;6.92;100.00
62791;BME280;48830;53.426;10.300;2023-04-08T04:56:02;102387.81;;;6.95;100.00
62791;BME280;48830;53.426;10.300;2023-04-08T04:58:28;102387.69;;;6.93;100.00
62791;BME280;48830;53.426;10.300;2023-04-08T05:00:55;102388.59;;;6.94;100.00
62791;BME280;48830;53.426;10.300;2023-04-08T05:03:20;102384.81;;;6.87;100.00
62791;BME280;48830;53.426;10.300;2023-04-08T05:05:50;102387.81;;;6.95;100.00
62791;BME280;48830;53.426;10.300;2023-04-08T05:08:16;102390.19;;;6.92;100.00
62791;BME280;48830;53.426;10.300;2023-04-08T05:10:42;102399.13;;;6.83;100.00
62791;BME280;48830;53.426;10.300;2023-04-08T05:13:07;102400.16;;;6.87;100.00
62791;BME280;48830;53.426;10.300;2023-04-08T05:15:33;102408.00;;;6.90;100.00
62791;BME280;48830;53.426;10.300;2023-04-08T05:17:58;102402.09;;;6.76;100.00
62791;BME280;48830;53.426;10.300;2023-04-08T05:20:23;102402.47;;;6.68;100.00
62791;BME280;48830;53.426;10.300;2023-04-08T05:22:49;102405.25;;;6.72;100.00
62791;BME280;48830;53.426;10.300;2023-04-08T05:25:15;102411.28;;;6.73;100.00
62791;BME280;48830;53.426;10.300;2023-04-08T05:27:40;102415.88;;;6.64;100.00
62791;BME280;48830;53.426;10.300;2023-04-08T05:30:06;102420.25;;;6.66;100.00
62791;BME280;48830;53.426;10.300;2023-04-08T05:32:32;102419.22;;;6.63;100.00
62791;BME280;48830;53.426;10.300;2023-04-08T05:35:01;102427.84;;;6.65;100.00
62791;BME280;48830;53.426;10.300;2023-04-08T05:37:26;102429.59;;;6.66;100.00
62791;BME280;48830;53.426;10.300;2023-04-08T05:39:52;102435.44;;;6.63;100.00
62791;BME280;48830;53.426;10.300;2023-04-08T05:42:17;102429.19;;;6.73;100.00
62791;BME280;48830;53.426;10.300;2023-04-08T05:44:43;102437.34;;;6.67;100.00
62791;BME280;48830;53.426;10.300;2023-04-08T05:47:08;102438.34;;;6.69;100.00
62791;BME280;48830;53.426;10.300;2023-04-08T05:49:34;102433.22;;;6.54;100.00
62791;BME280;48830;53.426;10.300;2023-04-08T05:51:59;102439.13;;;6.53;100.00
62791;BME280;48830;53.426;10.300;2023-04-08T05:54:25;102439.47;;;6.60;100.00
62791;BME280;48830;53.426;10.300;2023-04-08T05:56:50;102445.53;;;6.62;100.00
62791;BME280;48830;53.426;10.300;2023-04-08T05:59:16;102450.28;;;6.55;100.00
62791;BME280;48830;53.426;10.300;2023-04-08T06:01:41;102445.47;;;6.60;100.00
62791;BME280;48830;53.426;10.300;2023-04-08T06:04:07;102451.69;;;6.50;100.00
62791;BME280;48830;53.426;10.300;2023-04-08T06:06:32;102451.63;;;6.64;100.00
62791;BME280;48830;53.426;10.300;2023-04-08T06:08:58;102450.50;;;6.58;100.00
62791;BME280;48830;53.426;10.300;2023-04-08T06:11:23;102446.44;;;6.62;100.00
62791;BME280;48830;53.426;10.300;2023-04-08T06:13:48;102451.44;;;6.61;100.00
62791;BME280;48830;53.426;10.300;2023-04-08T06:16:15;102466.63;;;6.57;100.00
62791;BME280;48830;53.426;10.300;2023-04-08T06:18:44;102463.97;;;6.71;100.00
62791;BME280;48830;53.426;10.300;2023-04-08T06:21:09;102469.25;;;6.59;100.00
62791;BME280;48830;53.426;10.300;2023-04-08T06:23:35;102465.97;;;6.62;100.00
62791;BME280;48830;53.426;10.300;2023-04-08T06:26:01;102465.00;;;6.60;100.00
62791;BME280;48830;53.426;10.300;2023-04-08T06:28:28;102463.81;;;6.68;100.00
62791;BME280;48830;53.426;10.300;2023-04-08T06:30:54;102460.53;;;6.85;100.00
62791;BME280;48830;53.426;10.300;2023-04-08T06:33:19;102462.91;;;6.82;100.00
62791;BME280;48830;53.426;10.300;2023-04-08T06:35:45;102462.41;;;6.73;100.00
62791;BME280;48830;53.426;10.300;2023-04-08T06:38:11;102465.56;;;6.83;100.00
62791;BME280;48830;53.426;10.300;2023-04-08T06:40:38;102467.66;;;6.76;100.00
62791;BME280;48830;53.426;10.300;2023-04-08T06:43:03;102476.47;;;6.81;100.00
62791;BME280;48830;53.426;10.300;2023-04-08T06:45:34;102472.25;;;6.96;100.00
62791;BME280;48830;53.426;10.300;2023-04-08T06:48:00;102470.66;;;6.98;100.00
62791;BME280;48830;53.426;10.300;2023-04-08T06:50:26;102472.41;;;6.99;100.00
62791;BME280;48830;53.426;10.300;2023-04-08T06:52:51;102474.06;;;7.14;100.00
62791;BME280;48830;53.426;10.300;2023-04-08T06:55:17;102471.72;;;7.17;100.00
62791;BME280;48830;53.426;10.300;2023-04-08T06:57:42;102477.91;;;7.05;100.00
62791;BME280;48830;53.426;10.300;2023-04-08T07:00:08;102484.84;;;7.23;100.00
62791;BME280;48830;53.426;10.300;2023-04-08T07:02:34;102479.97;;;7.27;100.00
62791;BME280;48830;53.426;10.300;2023-04-08T07:04:59;102481.28;;;7.21;100.00
62791;BME280;48830;53.426;10.300;2023-04-08T07:07:25;102476.81;;;7.17;100.00
62791;BME280;48830;53.426;10.300;2023-04-08T07:09:50;102484.84;;;7.23;100.00
62791;BME280;48830;53.426;10.300;2023-04-08T07:12:16;102489.94;;;7.23;100.00
62791;BME280;48830;53.426;10.300;2023-04-08T07:14:41;102498.34;;;7.05;100.00
62791;BME280;48830;53.426;10.300;2023-04-08T07:17:07;102490.75;;;7.22;100.00
62791;BME280;48830;53.426;10.300;2023-04-08T07:19:32;102496.91;;;7.25;100.00
62791;BME280;48830;53.426;10.300;2023-04-08T07:21:58;102498.31;;;7.35;100.00
62791;BME280;48830;53.426;10.300;2023-04-08T07:24:26;102503.25;;;7.32;100.00
62791;BME280;48830;53.426;10.300;2023-04-08T07:26:51;102511.28;;;7.38;100.00
62791;BME280;48830;53.426;10.300;2023-04-08T07:29:17;102507.28;;;7.43;100.00
62791;BME280;48830;53.426;10.300;2023-04-08T07:31:43;102509.34;;;7.34;100.00
62791;BME280;48830;53.426;10.300;2023-04-08T07:34:09;102516.81;;;7.31;100.00
62791;BME280;48830;53.426;10.300;2023-04-08T07:36:34;102516.06;;;7.32;100.00
62791;BME280;48830;53.426;10.300;2023-04-08T07:39:00;102515.41;;;7.36;100.00
62791;BME280;48830;53.426;10.300;2023-04-08T07:41:25;102516.75;;;7.29;100.00
62791;BME280;48830;53.426;10.300;2023-04-08T07:43:51;102525.03;;;7.40;100.00
62791;BME280;48830;53.426;10.300;2023-04-08T07:46:16;102533.41;;;7.38;100.00
62791;BME280;48830;53.426;10.300;2023-04-08T07:48:42;102537.81;;;7.40;100.00
62791;BME280;48830;53.426;10.300;2023-04-08T07:51:08;102535.34;;;7.42;100.00
62791;BME280;48830;53.426;10.300;2023-04-08T07:53:34;102535.72;;;7.33;100.00
62791;BME280;48830;53.426;10.300;2023-04-08T07:56:00;102533.78;;;7.29;100.00
62791;BME280;48830;53.426;10.300;2023-04-08T07:58:28;102538.78;;;7.42;100.00
62791;BME280;48830;53.426;10.300;2023-04-08T08:00:53;102542.59;;;7.34;100.00
62791;BME280;48830;53.426;10.300;2023-04-08T08:03:19;102537.00;;;7.41;100.00
62791;BME280;48830;53.426;10.300;2023-04-08T08:05:44;102546.09;;;7.36;100.00
62791;BME280;48830;53.426;10.300;2023-04-08T08:08:10;102540.38;;;7.40;100.00
62791;BME280;48830;53.426;10.300;2023-04-08T08:10:39;102541.19;;;7.39;100.00
62791;BME280;48830;53.426;10.300;2023-04-08T08:13:05;102545.22;;;7.50;100.00
62791;BME280;48830;53.426;10.300;2023-04-08T08:15:32;102545.50;;;7.25;100.00
62791;BME280;48830;53.426;10.300;2023-04-08T08:17:57;102546.44;;;7.42;100.00
62791;BME280;48830;53.426;10.300;2023-04-08T08:20:23;102549.72;;;7.54;100.00
62791;BME280;48830;53.426;10.300;2023-04-08T08:22:48;102546.09;;;7.36;100.00
62791;BME280;48830;53.426;10.300;2023-04-08T08:25:15;102550.41;;;7.37;100.00
62791;BME280;48830;53.426;10.300;2023-04-08T08:27:40;102547.44;;;7.44;100.00
62791;BME280;48830;53.426;10.300;2023-04-08T08:30:07;102549.13;;;7.44;100.00
62791;BME280;48830;53.426;10.300;2023-04-08T08:32:33;102549.44;;;7.65;100.00
62791;BME280;48830;53.426;10.300;2023-04-08T08:34:59;102554.38;;;7.61;100.00
62791;BME280;48830;53.426;10.300;2023-04-08T08:37:24;102557.69;;;7.75;100.00
62791;BME280;48830;53.426;10.300;2023-04-08T08:39:51;102565.38;;;7.75;100.00
62791;BME280;48830;53.426;10.300;2023-04-08T08:42:21;102565.28;;;7.74;100.00
62791;BME280;48830;53.426;10.300;2023-04-08T08:44:47;102572.53;;;7.66;100.00
62791;BME280;48830;53.426;10.300;2023-04-08T08:47:13;102572.16;;;7.75;100.00
62791;BME280;48830;53.426;10.300;2023-04-08T08:49:39;102573.75;;;7.73;100.00
62791;BME280;48830;53.426;10.300;2023-04-08T08:52:05;102572.00;;;7.72;100.00
62791;BME280;48830;53.426;10.300;2023-04-08T08:54:31;102580.28;;;7.82;100.00
62791;BME280;48830;53.426;10.300;2023-04-08T08:56:57;102579.06;;;7.76;100.00
62791;BME280;48830;53.426;10.300;2023-04-08T08:59:22;102573.06;;;7.75;100.00
62791;BME280;48830;53.426;10.300;2023-04-08T09:01:48;102579.22;;;7.79;100.00
62791;BME280;48830;53.426;10.300;2023-04-08T09:04:20;102588.41;;;7.75;100.00
62791;BME280;48830;53.426;10.300;2023-04-08T09:07:07;102586.28;;;7.83;100.00
62791;BME280;48830;53.426;10.300;2023-04-08T09:09:52;102575.41;;;7.87;100.00
62791;BME280;48830;53.426;10.300;2023-04-08T09:12:18;102589.75;;;8.00;100.00
62791;BME280;48830;53.426;10.300;2023-04-08T09:14:43;102598.13;;;7.81;100.00
62791;BME280;48830;53.426;10.300;2023-04-08T09:17:09;102590.16;;;7.91;100.00
62791;BME280;48830;53.426;10.300;2023-04-08T09:19:34;102602.59;;;7.85;100.00
62791;BME280;48830;53.426;10.300;2023-04-08T09:22:09;102601.09;;;7.88;100.00
62791;BME280;48830;53.426;10.300;2023-04-08T09:24:36;102594.00;;;7.99;100.00
62791;BME280;48830;53.426;10.300;2023-04-08T09:27:05;102605.50;;;7.91;100.00
62791;BME280;48830;53.426;10.300;2023-04-08T09:29:30;102604.81;;;8.10;100.00
62791;BME280;48830;53.426;10.300;2023-04-08T09:31:57;102602.34;;;8.11;100.00
62791;BME280;48830;53.426;10.300;2023-04-08T09:34:24;102595.94;;;8.03;100.00
62791;BME280;48830;53.426;10.300;2023-04-08T09:36:50;102603.13;;;8.10;100.00
62791;BME280;48830;53.426;10.300;2023-04-08T09:39:16;102603.13;;;8.10;100.00
62791;BME280;48830;53.426;10.300;2023-04-08T09:41:42;102610.47;;;8.19;100.00
62791;BME280;48830;53.426;10.300;2023-04-08T09:44:09;102609.88;;;8.08;100.00
62791;BME280;48830;53.426;10.300;2023-04-08T09:49:26;102602.22;;;8.25;100.00
62791;BME280;48830;53.426;10.300;2023-04-08T09:52:02;102599.66;;;8.25;100.00
62791;BME280;48830;53.426;10.300;2023-04-08T09:54:50;102611.19;;;8.33;100.00
62791;BME280;48830;53.426;10.300;2023-04-08T10:00:08;102604.69;;;8.23;100.00
62791;BME280;48830;53.426;10.300;2023-04-08T10:03:05;102614.25;;;8.11;100.00
62791;BME280;48830;53.426;10.300;2023-04-08T10:05:35;102616.81;;;8.11;100.00
62791;BME280;48830;53.426;10.300;2023-04-08T10:08:02;102612.63;;;8.28;100.00
62791;BME280;48830;53.426;10.300;2023-04-08T10:10:28;102617.34;;;8.20;100.00
62791;BME280;48830;53.426;10.300;2023-04-08T10:12:53;102615.56;;;8.19;100.00
62791;BME280;48830;53.426;10.300;2023-04-08T10:17:56;102612.78;;;8.31;100.00
62791;BME280;48830;53.426;10.300;2023-04-08T10:20:45;102613.50;;;8.28;100.00
62791;BME280;48830;53.426;10.300;2023-04-08T10:23:12;102621.59;;;8.20;100.00
62791;BME280;48830;53.426;10.300;2023-04-08T10:25:45;102613.31;;;8.40;100.00
62791;BME280;48830;53.426;10.300;2023-04-08T10:33:18;102614.13;;;8.55;100.00
62791;BME280;48830;53.426;10.300;2023-04-08T10:38:14;102615.88;;;8.40;100.00
62791;BME280;48830;53.426;10.300;2023-04-08T10:40:41;102611.91;;;8.45;100.00
62791;BME280;48830;53.426;10.300;2023-04-08T10:43:11;102615.09;;;8.57;100.00
62791;BME280;48830;53.426;10.300;2023-04-08T10:45:38;102619.25;;;8.55;100.00
62791;BME280;48830;53.426;10.300;2023-04-08T10:48:13;102613.66;;;8.46;100.00
62791;BME280;48830;53.426;10.300;2023-04-08T10:50:40;102616.84;;;8.42;100.00
62791;BME280;48830;53.426;10.300;2023-04-08T10:53:06;102618.94;;;8.65;100.00
62791;BME280;48830;53.426;10.300;2023-04-08T10:55:32;102616.91;;;8.60;100.00
62791;BME280;48830;53.426;10.300;2023-04-08T10:58:08;102621.34;;;8.62;100.00
62791;BME280;48830;53.426;10.300;2023-04-08T11:00:36;102621.41;;;8.64;100.00
62791;BME280;48830;53.426;10.300;2023-04-08T11:03:03;102614.78;;;8.67;100.00
62791;BME280;48830;53.426;10.300;2023-04-08T11:05:30;102622.78;;;8.57;100.00
62791;BME280;48830;53.426;10.300;2023-04-08T11:08:00;102622.22;;;8.63;100.00
62791;BME280;48830;53.426;10.300;2023-04-08T11:10:26;102618.91;;;8.49;100.00
62791;BME280;48830;53.426;10.300;2023-04-08T11:12:56;102623.28;;;8.66;100.00
62791;BME280;48830;53.426;10.300;2023-04-08T11:15:25;102615.59;;;8.83;100.00
62791;BME280;48830;53.426;10.300;2023-04-08T11:17:53;102622.78;;;8.90;100.00
62791;BME280;48830;53.426;10.300;2023-04-08T11:20:19;102613.97;;;8.85;100.00
62791;BME280;48830;53.426;10.300;2023-04-08T11:22:45;102616.53;;;8.68;100.00
62791;BME280;48830;53.426;10.300;2023-04-08T11:25:11;102618.03;;;8.81;100.00
62791;BME280;48830;53.426;10.300;2023-04-08T11:27:37;102621.16;;;8.76;100.00
62791;BME280;48830;53.426;10.300;2023-04-08T11:30:05;102622.47;;;8.84;100.00
62791;BME280;48830;53.426;10.300;2023-04-08T11:32:31;102622.38;;;8.82;100.00
62791;BME280;48830;53.426;10.300;2023-04-08T11:35:03;102625.09;;;8.85;100.00
62791;BME280;48830;53.426;10.300;2023-04-08T11:37:39;102617.56;;;8.88;100.00
62791;BME280;48830;53.426;10.300;2023-04-08T11:40:09;102622.84;;;8.91;100.00
62791;BME280;48830;53.426;10.300;2023-04-08T11:42:35;102619.09;;;8.85;100.00
62791;BME280;48830;53.426;10.300;2023-04-08T11:45:08;102622.78;;;8.90;100.00
62791;BME280;48830;53.426;10.300;2023-04-08T11:47:35;102619.66;;;8.79;100.00
62791;BME280;48830;53.426;10.300;2023-04-08T11:50:02;102619.09;;;8.85;100.00
62791;BME280;48830;53.426;10.300;2023-04-08T11:52:45;102623.16;;;8.81;100.00
62791;BME280;48830;53.426;10.300;2023-04-08T11:55:31;102615.25;;;8.77;100.00
62791;BME280;48830;53.426;10.300;2023-04-08T11:58:02;102617.81;;;8.77;100.00
62791;BME280;48830;53.426;10.300;2023-04-08T12:00:28;102618.69;;;8.93;100.00
62791;BME280;48830;53.426;10.300;2023-04-08T12:02:54;102623.81;;;8.93;100.00
62791;BME280;48830;53.426;10.300;2023-04-08T12:05:19;102626.47;;;8.95;100.00
62791;BME280;48830;53.426;10.300;2023-04-08T12:07:45;102625.16;;;9.03;100.00
62791;BME280;48830;53.426;10.300;2023-04-08T12:10:11;102629.41;;;8.86;100.00
62791;BME280;48830;53.426;10.300;2023-04-08T12:12:37;102632.22;;;9.07;100.00
62791;BME280;48830;53.426;10.300;2023-04-08T12:15:03;102632.72;;;9.00;100.00
62791;BME280;48830;53.426;10.300;2023-04-08T12:17:29;102629.03;;;8.95;100.00
62791;BME280;48830;53.426;10.300;2023-04-08T12:19:55;102636.16;;;9.01;100.00
62791;BME280;48830;53.426;10.300;2023-04-08T12:22:21;102639.44;;;8.98;100.00
62791;BME280;48830;53.426;10.300;2023-04-08T12:24:46;102638.78;;;9.02;100.00
62791;BME280;48830;53.426;10.300;2023-04-08T12:27:12;102643.38;;;8.91;100.00
62791;BME280;48830;53.426;10.300;2023-04-08T12:29:37;102642.09;;;9.00;100.00
62791;BME280;48830;53.426;10.300;2023-04-08T12:32:04;102640.78;;;9.08;100.00
62791;BME280;48830;53.426;10.300;2023-04-08T12:34:30;102645.28;;;9.12;100.00
62791;BME280;48830;53.426;10.300;2023-04-08T12:36:57;102646.31;;;9.15;100.00
62791;BME280;48830;53.426;10.300;2023-04-08T12:39:23;102643.25;;;9.23;100.00
62791;BME280;48830;53.426;10.300;2023-04-08T12:41:48;102641.03;;;8.96;100.00
62791;BME280;48830;53.426;10.300;2023-04-08T12:44:13;102642.00;;;8.98;100.00
62791;BME280;48830;53.426;10.300;2023-04-08T12:46:39;102639.34;;;8.97;100.00
62791;BME280;48830;53.426;10.300;2023-04-08T12:49:04;102645.84;;;9.06;100.00
62791;BME280;48830;53.426;10.300;2023-04-08T12:51:30;102642.78;;;9.13;100.00
62791;BME280;48830;53.426;10.300;2023-04-08T12:53:56;102643.25;;;9.23;100.00
62791;BME280;48830;53.426;10.300;2023-04-08T12:56:21;102647.56;;;9.24;100.00
62791;BME280;48830;53.426;10.300;2023-04-08T12:58:47;102642.94;;;9.16;100.00
62791;BME280;48830;53.426;10.300;2023-04-08T13:01:12;102640.53;;;9.03;100.00